createdAt,value
2022-10-22T00:02:19.886Z,11.22
2022-10-22T00:04:50.930Z,11.24
2022-10-22T00:07:21.667Z,11.20
2022-10-22T00:09:54.396Z,11.19
2022-10-22T00:12:24.716Z,11.15
2022-10-22T00:14:54.804Z,11.14
2022-10-22T00:17:24.886Z,11.20
2022-10-22T00:19:54.999Z,11.17
2022-10-22T00:22:25.129Z,11.16
2022-10-22T00:24:57.861Z,11.11
2022-10-22T00:27:27.886Z,11.03
2022-10-22T00:29:57.900Z,11.04
2022-10-22T00:32:27.898Z,11.08
2022-10-22T00:34:57.979Z,11.07
2022-10-22T00:37:28.043Z,11.02
2022-10-22T00:40:00.773Z,10.90
2022-10-22T00:42:32.277Z,11.03
2022-10-22T00:45:26.525Z,11.02
2022-10-22T00:48:00.583Z,11.03
2022-10-22T00:50:34.667Z,11.02
2022-10-22T00:53:05.375Z,11.04
2022-10-22T00:55:38.577Z,11.03
2022-10-22T00:58:08.943Z,11.00
2022-10-22T01:00:39.066Z,11.08
2022-10-22T01:03:09.786Z,11.07
2022-10-22T01:05:45.686Z,11.10
2022-10-22T01:08:26.342Z,11.09
2022-10-22T01:11:09.773Z,11.08
2022-10-22T01:13:52.249Z,11.07
2022-10-22T01:16:30.557Z,11.05
2022-10-22T01:19:09.559Z,11.04
2022-10-22T01:21:44.787Z,10.97
2022-10-22T01:24:36.571Z,10.97
2022-10-22T01:27:28.935Z,10.88
2022-10-22T01:30:05.400Z,10.81
2022-10-22T01:32:41.745Z,10.77
2022-10-22T01:35:15.204Z,10.71
2022-10-22T01:37:49.422Z,10.64
2022-10-22T01:40:20.464Z,10.66
2022-10-22T01:43:01.538Z,10.61
2022-10-22T01:45:39.121Z,10.60
2022-10-22T01:48:25.632Z,10.56
2022-10-22T01:51:08.586Z,10.54
2022-10-22T01:53:48.232Z,10.48
2022-10-22T01:56:36.311Z,10.47
2022-10-22T01:59:12.046Z,10.46
2022-10-22T02:01:53.495Z,10.49
2022-10-22T02:04:29.188Z,10.51
2022-10-22T02:07:04.746Z,10.52
2022-10-22T02:09:35.793Z,10.53
2022-10-22T02:12:10.096Z,10.54
2022-10-22T02:14:44.099Z,10.55
2022-10-22T02:17:21.139Z,10.56
2022-10-22T02:19:56.776Z,10.57
2022-10-22T02:22:28.018Z,10.57
2022-10-22T02:24:58.911Z,10.53
2022-10-22T02:27:33.694Z,10.55
2022-10-22T02:30:08.120Z,10.50
2022-10-22T02:32:45.068Z,10.50
2022-10-22T02:35:20.182Z,10.49
2022-10-22T02:37:51.077Z,10.42
2022-10-22T02:40:22.559Z,10.34
2022-10-22T02:42:53.652Z,10.28
2022-10-22T02:45:24.353Z,10.25
2022-10-22T02:47:56.968Z,10.18
2022-10-22T02:50:27.033Z,10.17
2022-10-22T02:52:57.044Z,10.17
2022-10-22T02:55:27.075Z,10.16
2022-10-22T02:57:57.254Z,10.19
2022-10-22T03:00:27.386Z,10.20
2022-10-22T03:03:00.013Z,10.25
2022-10-22T03:05:30.138Z,10.22
2022-10-22T03:08:00.093Z,10.23
2022-10-22T03:10:30.314Z,10.27
2022-10-22T03:13:00.586Z,10.23
2022-10-22T03:15:30.678Z,10.22
2022-10-22T03:18:03.479Z,10.27
2022-10-22T03:20:33.933Z,10.26
2022-10-22T03:23:05.306Z,10.19
2022-10-22T03:25:35.804Z,10.28
2022-10-22T03:28:09.941Z,10.26
2022-10-22T03:30:40.038Z,10.27
2022-10-22T03:33:12.616Z,10.25
2022-10-22T03:35:49.346Z,10.26
2022-10-22T03:38:19.529Z,10.22
2022-10-22T03:40:50.225Z,10.19
2022-10-22T03:43:20.467Z,10.17
2022-10-22T03:45:50.542Z,10.14
2022-10-22T03:48:23.172Z,10.13
2022-10-22T03:50:53.426Z,10.16
2022-10-22T03:53:23.425Z,10.17
2022-10-22T03:55:53.637Z,10.15
2022-10-22T03:58:23.720Z,10.15
2022-10-22T04:00:53.943Z,10.13
2022-10-22T04:03:26.689Z,10.08
2022-10-22T04:05:56.668Z,10.08
2022-10-22T04:08:26.821Z,10.10
2022-10-22T04:10:56.829Z,10.11
2022-10-22T04:13:27.030Z,10.12
2022-10-22T04:15:57.216Z,10.16
2022-10-22T04:18:29.834Z,10.10
2022-10-22T04:20:59.888Z,10.05
2022-10-22T04:23:29.872Z,9.97
2022-10-22T04:26:01.864Z,9.96
2022-10-22T04:28:32.193Z,9.93
2022-10-22T04:31:02.417Z,9.88
2022-10-22T04:33:35.067Z,9.66
2022-10-22T04:36:09.839Z,9.78
2022-10-22T04:38:40.174Z,9.73
2022-10-22T04:41:14.927Z,9.69
2022-10-22T04:43:45.953Z,9.62
2022-10-22T04:46:17.210Z,9.54
2022-10-22T04:48:50.248Z,9.50
2022-10-22T04:51:23.124Z,9.44
2022-10-22T04:53:53.820Z,9.37
2022-10-22T04:56:25.572Z,9.33
2022-10-22T04:58:57.760Z,9.27
2022-10-22T05:01:29.584Z,9.21
2022-10-22T05:04:04.433Z,9.17
2022-10-22T05:06:35.323Z,9.15
2022-10-22T05:09:07.664Z,9.12
2022-10-22T05:11:41.655Z,9.11
2022-10-22T05:14:11.861Z,9.12
2022-10-22T05:16:42.030Z,9.14
2022-10-22T05:19:20.738Z,9.20
2022-10-22T05:21:50.816Z,9.27
2022-10-22T05:24:21.170Z,9.33
2022-10-22T05:26:52.618Z,9.39
2022-10-22T05:29:23.828Z,9.49
2022-10-22T05:31:53.953Z,9.54
2022-10-22T05:34:26.607Z,9.63
2022-10-22T05:36:56.673Z,9.71
2022-10-22T05:39:26.650Z,9.83
2022-10-22T05:41:56.814Z,9.93
2022-10-22T05:44:26.849Z,9.99
2022-10-22T05:46:56.945Z,10.08
2022-10-22T05:49:29.530Z,10.21
2022-10-22T05:51:59.583Z,10.36
2022-10-22T05:54:29.625Z,10.44
2022-10-22T05:57:00.037Z,10.42
2022-10-22T05:59:30.056Z,10.50
2022-10-22T06:02:00.281Z,10.60
2022-10-22T06:04:32.968Z,10.69
2022-10-22T06:07:03.049Z,10.81
2022-10-22T06:12:27.934Z,10.77
2022-10-22T06:14:58.026Z,10.77
2022-10-22T06:17:29.528Z,10.78
2022-10-22T06:20:02.413Z,10.81
2022-10-22T06:22:32.856Z,10.83
2022-10-22T06:25:02.921Z,10.91
2022-10-22T06:27:32.893Z,11.01
2022-10-22T06:30:03.465Z,11.14
2022-10-22T06:32:34.588Z,11.31
2022-10-22T06:35:08.002Z,11.53
2022-10-22T06:37:38.289Z,11.55
2022-10-22T06:40:11.198Z,11.84
2022-10-22T06:42:41.437Z,12.15
2022-10-22T06:45:13.654Z,12.64
2022-10-22T06:47:43.840Z,13.03
2022-10-22T06:50:16.864Z,13.51
2022-10-22T06:52:46.888Z,13.98
2022-10-22T06:55:17.067Z,14.44
2022-10-22T06:57:47.598Z,14.82
2022-10-22T07:00:17.994Z,14.94
2022-10-22T07:02:56.472Z,15.03
2022-10-22T07:05:31.794Z,15.27
2022-10-22T07:08:01.859Z,15.45
2022-10-22T07:10:32.038Z,15.69
2022-10-22T07:13:02.549Z,15.82
2022-10-22T07:15:32.689Z,16.11
2022-10-22T07:18:04.793Z,16.34
2022-10-22T07:20:37.503Z,16.48
2022-10-22T07:23:07.698Z,16.15
2022-10-22T07:25:37.762Z,16.08
2022-10-22T07:28:08.199Z,15.98
2022-10-22T07:30:39.679Z,15.99
2022-10-22T07:33:11.048Z,15.87
2022-10-22T07:35:44.616Z,16.01
2022-10-22T07:38:14.625Z,15.79
2022-10-22T07:40:44.688Z,15.89
2022-10-22T07:43:17.454Z,16.02
2022-10-22T07:45:47.844Z,16.13
2022-10-22T07:48:18.199Z,16.08
2022-10-22T07:50:52.165Z,16.05
2022-10-22T07:53:22.566Z,16.27
2022-10-22T07:55:53.162Z,16.48
2022-10-22T07:58:24.748Z,16.57
2022-10-22T08:00:58.620Z,16.69
2022-10-22T08:03:28.329Z,16.66
2022-10-22T08:06:01.275Z,16.70
2022-10-22T08:08:33.528Z,16.73
2022-10-22T08:11:04.597Z,16.91
2022-10-22T08:13:34.593Z,16.87
2022-10-22T08:16:05.055Z,16.75
2022-10-22T08:18:35.205Z,16.56
2022-10-22T08:21:08.478Z,16.86
2022-10-22T08:23:38.714Z,16.91
2022-10-22T08:26:09.110Z,17.12
2022-10-22T08:28:39.761Z,17.23
2022-10-22T08:31:11.030Z,17.19
2022-10-22T08:33:42.141Z,17.08
2022-10-22T08:36:14.936Z,17.17
2022-10-22T08:38:44.972Z,17.23
2022-10-22T08:41:17.004Z,17.27
2022-10-22T08:44:16.821Z,17.19
2022-10-22T08:46:59.372Z,17.10
2022-10-22T08:49:34.248Z,17.01
2022-10-22T08:52:08.972Z,16.94
2022-10-22T08:54:50.357Z,16.89
2022-10-22T09:00:25.101Z,17.10
2022-10-22T09:03:10.515Z,17.23
2022-10-22T09:05:49.238Z,17.36
2022-10-22T09:08:23.365Z,17.39
2022-10-22T09:10:58.431Z,17.77
2022-10-22T09:13:28.533Z,17.61
2022-10-22T09:16:02.146Z,17.78
2022-10-22T09:18:38.221Z,17.84
2022-10-22T09:21:19.810Z,17.49
2022-10-22T09:24:07.429Z,17.70
2022-10-22T09:26:40.723Z,17.67
2022-10-22T09:29:16.728Z,17.47
2022-10-22T09:31:47.426Z,17.50
2022-10-22T09:34:18.654Z,17.40
2022-10-22T09:36:49.289Z,17.32
2022-10-22T09:39:30.771Z,17.26
2022-10-22T09:42:00.847Z,17.27
2022-10-22T09:44:30.987Z,17.37
2022-10-22T09:47:00.993Z,17.36
2022-10-22T09:49:35.896Z,17.47
2022-10-22T09:52:06.322Z,17.58
2022-10-22T09:54:45.826Z,17.60
2022-10-22T09:57:21.650Z,17.39
2022-10-22T09:59:54.188Z,17.58
2022-10-22T10:02:38.261Z,17.51
2022-10-22T10:05:11.484Z,17.09
2022-10-22T10:07:41.685Z,16.88
2022-10-22T10:10:22.913Z,16.94
2022-10-22T10:13:00.150Z,16.78
2022-10-22T10:15:36.828Z,16.63
2022-10-22T10:18:20.718Z,16.65
2022-10-22T10:20:59.949Z,16.55
2022-10-22T10:23:38.021Z,16.37
2022-10-22T10:26:16.661Z,16.41
2022-10-22T10:29:17.073Z,16.38
2022-10-22T10:32:01.419Z,16.34
2022-10-22T10:34:39.296Z,16.28
2022-10-22T10:37:21.794Z,16.17
2022-10-22T10:40:06.130Z,16.30
2022-10-22T10:42:45.192Z,16.35
2022-10-22T10:45:23.190Z,16.25
2022-10-22T10:48:06.222Z,16.32
2022-10-22T10:50:46.637Z,16.31
2022-10-22T10:53:24.711Z,16.15
2022-10-22T10:56:04.654Z,16.17
2022-10-22T10:58:48.154Z,16.29
2022-10-22T11:01:27.547Z,16.30
2022-10-22T11:04:29.639Z,16.29
2022-10-22T11:07:11.581Z,16.27
2022-10-22T11:09:54.043Z,16.28
2022-10-22T11:12:29.328Z,16.20
2022-10-22T11:15:10.070Z,16.12
2022-10-22T11:17:44.008Z,16.21
2022-10-22T11:20:20.656Z,16.20
2022-10-22T11:23:17.353Z,16.12
2022-10-22T11:25:48.397Z,16.11
2022-10-22T11:28:24.062Z,16.09
2022-10-22T11:31:03.024Z,16.08
2022-10-22T11:33:43.743Z,16.13
2022-10-22T11:36:15.286Z,16.05
2022-10-22T11:38:45.492Z,16.04
2022-10-22T11:41:19.071Z,16.12
2022-10-22T11:44:00.596Z,16.12
2022-10-22T11:46:43.002Z,16.07
2022-10-22T11:49:28.044Z,15.99
2022-10-22T11:52:27.075Z,16.05
2022-10-22T11:54:59.164Z,16.05
2022-10-22T11:57:32.747Z,16.10
2022-10-22T12:00:03.424Z,15.98
2022-10-22T12:02:46.876Z,15.98
2022-10-22T12:05:36.382Z,15.94
2022-10-22T12:08:28.794Z,15.91
2022-10-22T12:11:05.781Z,15.90
2022-10-22T12:13:53.779Z,15.91
2022-10-22T12:16:43.942Z,15.86
2022-10-22T12:19:27.100Z,15.82
2022-10-22T12:21:59.281Z,15.81
2022-10-22T12:24:34.967Z,15.79
2022-10-22T12:27:08.210Z,15.83
2022-10-22T12:29:38.510Z,15.89
2022-10-22T12:32:09.074Z,15.90
2022-10-22T12:37:21.359Z,15.84
2022-10-22T12:39:51.468Z,15.82
2022-10-22T12:42:23.884Z,15.69
2022-10-22T12:44:58.926Z,15.69
2022-10-22T12:47:28.994Z,15.69
2022-10-22T12:50:03.271Z,15.73
2022-10-22T12:52:34.008Z,15.76
2022-10-22T12:55:04.104Z,15.78
2022-10-22T12:57:34.198Z,15.82
2022-10-22T13:00:04.540Z,15.79
2022-10-22T13:02:34.657Z,15.83
2022-10-22T13:05:20.689Z,15.83
2022-10-22T13:07:52.930Z,15.86
2022-10-22T13:10:27.949Z,15.85
2022-10-22T13:13:03.330Z,15.81
2022-10-22T13:15:39.945Z,15.77
2022-10-22T13:18:20.650Z,15.81
2022-10-22T13:20:59.008Z,15.81
2022-10-22T13:23:33.924Z,15.79
2022-10-22T13:26:06.901Z,15.80
2022-10-22T13:28:37.025Z,15.56
2022-10-22T13:31:14.734Z,15.66
2022-10-22T13:33:48.173Z,15.63
2022-10-22T13:36:21.314Z,15.60
2022-10-22T13:38:51.553Z,15.47
2022-10-22T13:41:22.750Z,15.36
2022-10-22T13:43:53.535Z,15.38
2022-10-22T13:46:24.389Z,15.39
2022-10-22T13:48:58.868Z,15.39
2022-10-22T13:51:37.615Z,15.35
2022-10-22T13:54:13.538Z,15.35
2022-10-22T13:56:43.606Z,15.35
2022-10-22T13:59:15.383Z,15.29
2022-10-22T14:01:48.789Z,15.24
2022-10-22T14:04:18.861Z,15.19
2022-10-22T14:06:51.581Z,15.15
2022-10-22T14:09:24.745Z,15.11
2022-10-22T14:11:54.804Z,15.11
2022-10-22T14:14:24.817Z,15.03
2022-10-22T14:16:54.897Z,14.99
2022-10-22T14:19:24.966Z,14.90
2022-10-22T14:21:57.599Z,14.86
2022-10-22T14:24:27.698Z,14.86
2022-10-22T14:27:00.640Z,14.84
2022-10-22T14:29:30.707Z,14.79
2022-10-22T14:32:02.891Z,14.78
2022-10-22T14:34:33.023Z,14.72
2022-10-22T14:37:06.031Z,14.71
2022-10-22T14:39:36.071Z,14.68
2022-10-22T14:42:06.221Z,14.66
2022-10-22T14:44:36.231Z,14.61
2022-10-22T14:47:06.346Z,14.57
2022-10-22T14:49:36.928Z,14.56
2022-10-22T14:52:11.783Z,14.50
2022-10-22T14:54:44.248Z,14.50
2022-10-22T14:57:14.625Z,14.27
2022-10-22T14:59:45.306Z,14.34
2022-10-22T15:02:16.223Z,14.38
2022-10-22T15:04:46.249Z,14.27
2022-10-22T15:07:20.415Z,14.28
2022-10-22T15:09:50.569Z,14.25
2022-10-22T15:12:20.798Z,14.24
2022-10-22T15:14:51.151Z,14.29
2022-10-22T15:17:22.212Z,14.11
2022-10-22T15:19:53.308Z,14.11
2022-10-22T15:22:26.560Z,14.09
2022-10-22T15:24:56.641Z,14.00
2022-10-22T15:27:30.846Z,13.89
2022-10-22T15:32:51.740Z,13.78
2022-10-22T15:35:22.058Z,13.70
2022-10-22T15:37:56.680Z,13.69
2022-10-22T15:40:26.992Z,13.61
2022-10-22T15:42:57.206Z,13.59
2022-10-22T15:45:27.604Z,13.59
2022-10-22T15:47:58.593Z,13.56
2022-10-22T15:50:29.485Z,13.56
2022-10-22T15:53:04.702Z,13.46
2022-10-22T15:55:35.018Z,13.46
2022-10-22T15:58:05.296Z,13.41
2022-10-22T16:00:38.763Z,13.39
2022-10-22T16:03:11.925Z,13.34
2022-10-22T16:05:54.641Z,13.32
2022-10-22T16:08:28.058Z,13.27
2022-10-22T16:10:58.720Z,13.21
2022-10-22T16:13:29.226Z,13.22
2022-10-22T16:15:59.418Z,13.22
2022-10-22T16:18:31.007Z,13.19
2022-10-22T16:21:01.872Z,13.11
2022-10-22T16:23:34.751Z,13.16
2022-10-22T16:26:08.086Z,13.10
2022-10-22T16:28:40.464Z,13.07
2022-10-22T16:31:13.377Z,13.09
2022-10-22T16:33:49.968Z,13.08
2022-10-22T16:36:22.551Z,13.03
2022-10-22T16:38:56.485Z,13.02
2022-10-22T16:41:35.424Z,13.00
2022-10-22T16:44:09.259Z,13.02
2022-10-22T16:46:40.822Z,12.99
2022-10-22T16:49:11.427Z,12.97
2022-10-22T16:51:42.718Z,12.94
2022-10-22T16:54:18.587Z,12.95
2022-10-22T16:56:52.197Z,12.96
2022-10-22T16:59:25.385Z,12.94
2022-10-22T17:02:00.632Z,12.94
2022-10-22T17:04:33.509Z,12.90
2022-10-22T17:07:04.147Z,12.90
2022-10-22T17:09:37.153Z,12.89
2022-10-22T17:12:10.511Z,12.90
2022-10-22T17:14:41.028Z,12.86
2022-10-22T17:17:11.728Z,12.79
2022-10-22T17:19:46.616Z,12.78
2022-10-22T17:22:27.449Z,12.77
2022-10-22T17:25:15.080Z,12.69
2022-10-22T17:27:49.064Z,12.67
2022-10-22T17:30:26.517Z,12.70
2022-10-22T17:32:58.276Z,12.63
2022-10-22T17:35:29.286Z,12.57
2022-10-22T17:37:59.904Z,12.55
2022-10-22T17:40:33.908Z,12.55
2022-10-22T17:43:04.609Z,12.46
2022-10-22T17:45:35.061Z,12.54
2022-10-22T17:48:06.139Z,12.57
2022-10-22T17:50:37.584Z,12.46
2022-10-22T17:53:09.434Z,12.47
2022-10-22T17:55:42.367Z,12.48
2022-10-22T17:58:12.964Z,12.42
2022-10-22T18:00:43.292Z,12.44
2022-10-22T18:03:14.267Z,12.38
2022-10-22T18:05:45.221Z,12.43
2022-10-22T18:08:16.486Z,12.48
2022-10-22T18:10:53.111Z,12.48
2022-10-22T18:13:23.703Z,12.40
2022-10-22T18:15:57.495Z,12.40
2022-10-22T18:18:29.005Z,12.45
2022-10-22T18:21:00.692Z,12.45
2022-10-22T18:23:31.508Z,12.41
2022-10-22T18:26:07.760Z,12.45
2022-10-22T18:28:39.666Z,12.38
2022-10-22T18:31:11.669Z,12.38
2022-10-22T18:33:45.349Z,12.38
2022-10-22T18:36:19.504Z,12.39
2022-10-22T18:38:52.350Z,12.35
2022-10-22T18:41:28.629Z,12.36
2022-10-22T18:44:02.183Z,12.34
2022-10-22T18:46:34.788Z,12.32
2022-10-22T18:49:07.287Z,12.36
2022-10-22T18:51:39.067Z,12.31
2022-10-22T18:54:22.525Z,12.36
2022-10-22T18:57:00.503Z,12.34
2022-10-22T18:59:34.264Z,12.37
2022-10-22T19:02:05.836Z,12.40
2022-10-22T19:04:37.201Z,12.42
2022-10-22T19:09:42.380Z,12.46
2022-10-22T19:12:16.368Z,12.48
2022-10-22T19:14:50.186Z,12.51
2022-10-22T19:17:21.009Z,12.49
2022-10-22T19:19:51.669Z,12.47
2022-10-22T19:22:22.316Z,12.45
2022-10-22T19:24:53.786Z,12.41
2022-10-22T19:27:27.666Z,12.43
2022-10-22T19:29:58.369Z,12.45
2022-10-22T19:32:36.511Z,12.41
2022-10-22T19:35:08.736Z,12.38
2022-10-22T19:37:39.903Z,12.36
2022-10-22T19:40:12.095Z,12.32
2022-10-22T19:42:53.250Z,12.27
2022-10-22T19:45:26.130Z,12.29
2022-10-22T19:47:56.592Z,12.26
2022-10-22T19:50:29.665Z,12.25
2022-10-22T19:53:01.603Z,12.24
2022-10-22T19:55:32.116Z,12.24
2022-10-22T19:58:09.059Z,12.25
2022-10-22T20:00:43.291Z,12.24
2022-10-22T20:03:14.769Z,12.29
2022-10-22T20:05:48.128Z,12.26
2022-10-22T20:08:18.801Z,12.22
2022-10-22T20:10:51.699Z,12.20
2022-10-22T20:13:24.559Z,12.14
2022-10-22T20:15:57.266Z,12.12
2022-10-22T20:18:34.161Z,12.06
2022-10-22T20:21:06.947Z,12.00
2022-10-22T20:23:46.802Z,11.94
2022-10-22T20:26:17.305Z,11.84
2022-10-22T20:28:50.365Z,11.87
2022-10-22T20:31:24.127Z,11.87
2022-10-22T20:33:58.137Z,11.92
2022-10-22T20:36:33.732Z,11.95
2022-10-22T20:39:07.403Z,11.98
2022-10-22T20:41:40.354Z,12.00
2022-10-22T20:44:17.414Z,12.05
2022-10-22T20:46:50.993Z,12.07
2022-10-22T20:49:22.512Z,12.11
2022-10-22T20:51:55.614Z,12.08
2022-10-22T20:54:25.936Z,12.09
2022-10-22T20:56:56.527Z,12.12
2022-10-22T20:59:33.293Z,12.10
2022-10-22T21:02:04.002Z,12.10
2022-10-22T21:04:37.269Z,12.04
2022-10-22T21:07:07.613Z,12.11
2022-10-22T21:09:37.790Z,12.16
2022-10-22T21:12:08.662Z,12.23
2022-10-22T21:14:41.429Z,12.26
2022-10-22T21:17:11.486Z,12.25
2022-10-22T21:19:41.957Z,12.30
2022-10-22T21:22:12.072Z,12.31
2022-10-22T21:24:42.393Z,12.34
2022-10-22T21:27:15.056Z,12.36
2022-10-22T21:29:48.109Z,12.38
2022-10-22T21:32:18.230Z,12.39
2022-10-22T21:34:48.363Z,12.46
2022-10-22T21:37:18.511Z,12.50
2022-10-22T21:39:56.853Z,12.46
2022-10-22T21:42:26.979Z,12.52
2022-10-22T21:44:59.651Z,12.61
2022-10-22T21:47:29.858Z,12.65
2022-10-22T21:49:59.819Z,12.49
2022-10-22T21:52:29.851Z,12.68
2022-10-22T21:54:59.918Z,12.68
2022-10-22T21:57:30.029Z,12.71
2022-10-22T22:00:02.716Z,12.70
2022-10-22T22:02:34.420Z,12.68
2022-10-22T22:05:04.576Z,12.67
2022-10-22T22:07:35.516Z,12.52
2022-10-22T22:10:05.650Z,12.57
2022-10-22T22:12:35.718Z,12.56
2022-10-22T22:15:10.023Z,12.45
2022-10-22T22:17:40.187Z,12.48
2022-10-22T22:20:11.121Z,12.40
2022-10-22T22:22:41.452Z,12.36
2022-10-22T22:25:12.226Z,12.31
2022-10-22T22:27:42.630Z,12.29
2022-10-22T22:30:17.977Z,12.25
2022-10-22T22:32:48.127Z,12.18
2022-10-22T22:35:19.368Z,12.18
2022-10-22T22:37:49.625Z,12.10
2022-10-22T22:40:19.650Z,12.11
2022-10-22T22:42:49.841Z,12.04
2022-10-22T22:45:22.573Z,12.02
2022-10-22T22:47:52.655Z,12.04
2022-10-22T22:50:22.775Z,11.98
2022-10-22T22:52:52.880Z,12.00
2022-10-22T22:55:23.086Z,11.98
2022-10-22T22:57:53.373Z,12.01
2022-10-22T23:00:26.331Z,12.02
2022-10-22T23:02:57.572Z,11.88
2022-10-22T23:05:27.683Z,11.88
2022-10-22T23:07:57.730Z,11.83
2022-10-22T23:10:27.893Z,11.77
2022-10-22T23:12:58.003Z,11.87
2022-10-22T23:15:30.644Z,11.83
2022-10-22T23:18:00.684Z,11.81
2022-10-22T23:20:30.864Z,11.86
2022-10-22T23:23:00.859Z,11.82
2022-10-22T23:25:30.827Z,11.78
2022-10-22T23:28:01.009Z,11.74
2022-10-22T23:30:33.681Z,11.73
2022-10-22T23:33:04.087Z,11.75
2022-10-22T23:35:34.257Z,11.73
2022-10-22T23:38:04.644Z,11.67
2022-10-22T23:40:34.773Z,11.66
2022-10-22T23:43:05.038Z,11.62
2022-10-22T23:45:39.553Z,11.63
2022-10-22T23:48:09.816Z,11.64
2022-10-22T23:50:40.318Z,11.62
2022-10-22T23:53:10.665Z,11.62
2022-10-22T23:55:40.825Z,11.59
2022-10-22T23:58:11.269Z,11.56
